BOS weather

General Edward Lawrence Logan International Airport
Boston, Massachusetts, United States

Public forecast

Using degrees Fahrenheit for public forecast. Weather courtesy of forecast.io.

METAR (pilot weather report)

Retrieved 2018/01/20 15:54 UTC (31 minutes ago):

KBOS 201554Z 25015G23KT 10SM FEW120 BKN150 BKN220 07/M05 A2969 RMK AO2 PK WND 24026/1455 SLP052 T00671050

TAF (pilot weather forecast)

Retrieved 2018/01/20 12:31 UTC (4 hours ago):

TAF KBOS 201128Z 2012/2118 23015G23KT P6SM BKN250 FM210900 28006KT P6SM SCT200